sensor_id;sensor_type;location;lat;lon;timestamp;pressure;altitude;pressure_sealevel;temperature;humidity
3960;BME280;1994;48.640;8.894;2023-04-01T00:01:00;94858.47;;;8.31;100.00
3960;BME280;1994;48.640;8.894;2023-04-01T00:03:26;94853.06;;;8.32;99.75
3960;BME280;1994;48.640;8.894;2023-04-01T00:05:57;94846.63;;;8.35;99.76
3960;BME280;1994;48.640;8.894;2023-04-01T00:08:24;94845.59;;;8.36;99.56
3960;BME280;1994;48.640;8.894;2023-04-01T00:10:50;94840.97;;;8.38;99.38
3960;BME280;1994;48.640;8.894;2023-04-01T00:13:16;94846.16;;;8.43;98.65
3960;BME280;1994;48.640;8.894;2023-04-01T00:15:42;94845.66;;;8.46;97.98
3960;BME280;1994;48.640;8.894;2023-04-01T00:18:08;94838.97;;;8.50;97.47
3960;BME280;1994;48.640;8.894;2023-04-01T00:20:35;94846.72;;;8.50;96.85
3960;BME280;1994;48.640;8.894;2023-04-01T00:23:00;94849.81;;;8.52;96.67
3960;BME280;1994;48.640;8.894;2023-04-01T00:25:26;94841.03;;;8.53;97.27
3960;BME280;1994;48.640;8.894;2023-04-01T00:27:52;94838.97;;;8.55;98.53
3960;BME280;1994;48.640;8.894;2023-04-01T00:30:18;94831.25;;;8.50;99.18
3960;BME280;1994;48.640;8.894;2023-04-01T00:32:44;94838.16;;;8.44;99.40
3960;BME280;1994;48.640;8.894;2023-04-01T00:35:10;94842.06;;;8.52;99.23
3960;BME280;1994;48.640;8.894;2023-04-01T00:37:37;94853.88;;;8.43;98.97
3960;BME280;1994;48.640;8.894;2023-04-01T00:40:36;94849.75;;;8.42;99.79
3960;BME280;1994;48.640;8.894;2023-04-01T00:43:03;94846.69;;;8.45;99.54
3960;BME280;1994;48.640;8.894;2023-04-01T00:45:38;94844.59;;;8.42;99.69
3960;BME280;1994;48.640;8.894;2023-04-01T00:48:14;94847.22;;;8.47;99.26
3960;BME280;1994;48.640;8.894;2023-04-01T00:50:49;94841.00;;;8.43;100.00
3960;BME280;1994;48.640;8.894;2023-04-01T00:53:18;94830.13;;;8.36;100.00
3960;BME280;1994;48.640;8.894;2023-04-01T00:56:15;94828.06;;;8.38;99.54
3960;BME280;1994;48.640;8.894;2023-04-01T00:58:47;94841.97;;;8.32;98.34
3960;BME280;1994;48.640;8.894;2023-04-01T01:01:15;94852.81;;;8.34;98.48
3960;BME280;1994;48.640;8.894;2023-04-01T01:03:41;94857.53;;;8.47;98.49
3960;BME280;1994;48.640;8.894;2023-04-01T01:06:30;94846.66;;;8.40;98.41
3960;BME280;1994;48.640;8.894;2023-04-01T01:12:20;94843.31;;;8.44;98.84
3960;BME280;1994;48.640;8.894;2023-04-01T01:18:35;94837.63;;;8.37;97.77
3960;BME280;1994;48.640;8.894;2023-04-01T01:24:29;94846.09;;;8.33;98.00
3960;BME280;1994;48.640;8.894;2023-04-01T01:27:17;94858.47;;;8.31;98.81
3960;BME280;1994;48.640;8.894;2023-04-01T01:30:10;94871.88;;;8.33;99.47
3960;BME280;1994;48.640;8.894;2023-04-01T01:33:54;94854.50;;;8.18;100.00
3960;BME280;1994;48.640;8.894;2023-04-01T01:35:59;94859.47;;;8.25;100.00
3960;BME280;1994;48.640;8.894;2023-04-01T01:38:31;94853.53;;;8.24;100.00
3960;BME280;1994;48.640;8.894;2023-04-01T01:40:59;94853.56;;;8.29;100.00
3960;BME280;1994;48.640;8.894;2023-04-01T01:43:38;94843.38;;;8.13;100.00
3960;BME280;1994;48.640;8.894;2023-04-01T01:46:11;94843.47;;;8.23;100.00
3960;BME280;1994;48.640;8.894;2023-04-01T01:48:41;94838.25;;;8.18;99.33
3960;BME280;1994;48.640;8.894;2023-04-01T01:51:08;94844.00;;;8.25;98.98
3960;BME280;1994;48.640;8.894;2023-04-01T01:53:35;94847.09;;;8.27;98.21
3960;BME280;1994;48.640;8.894;2023-04-01T01:56:01;94841.94;;;8.27;98.14
3960;BME280;1994;48.640;8.894;2023-04-01T01:58:37;94842.44;;;8.24;98.30
3960;BME280;1994;48.640;8.894;2023-04-01T02:01:23;94844.50;;;8.27;98.44
3960;BME280;1994;48.640;8.894;2023-04-01T02:03:52;94844.47;;;8.22;97.84
3960;BME280;1994;48.640;8.894;2023-04-01T02:06:22;94848.66;;;8.28;97.60
3960;BME280;1994;48.640;8.894;2023-04-01T02:09:05;94847.25;;;8.15;98.69
3960;BME280;1994;48.640;8.894;2023-04-01T02:11:55;94849.63;;;8.22;99.32
3960;BME280;1994;48.640;8.894;2023-04-01T02:14:28;94850.53;;;8.06;99.36
3960;BME280;1994;48.640;8.894;2023-04-01T02:17:00;94861.38;;;8.03;98.97
3960;BME280;1994;48.640;8.894;2023-04-01T02:19:43;94875.34;;;8.12;98.10
3960;BME280;1994;48.640;8.894;2023-04-01T02:22:38;94867.03;;;8.05;97.48
3960;BME280;1994;48.640;8.894;2023-04-01T02:25:07;94846.44;;;8.10;96.68
3960;BME280;1994;48.640;8.894;2023-04-01T02:27:34;94853.91;;;8.06;95.63
3960;BME280;1994;48.640;8.894;2023-04-01T02:29:59;94848.03;;;8.16;95.78
3960;BME280;1994;48.640;8.894;2023-04-01T02:32:27;94853.78;;;8.23;94.96
3960;BME280;1994;48.640;8.894;2023-04-01T02:34:56;94858.78;;;8.03;95.94
3960;BME280;1994;48.640;8.894;2023-04-01T02:37:22;94843.81;;;8.05;97.04
3960;BME280;1994;48.640;8.894;2023-04-01T02:39:48;94858.25;;;8.01;97.77
3960;BME280;1994;48.640;8.894;2023-04-01T02:42:14;94854.53;;;7.87;98.09
3960;BME280;1994;48.640;8.894;2023-04-01T02:44:40;94850.97;;;7.93;98.02
3960;BME280;1994;48.640;8.894;2023-04-01T02:47:06;94841.94;;;7.90;98.16
3960;BME280;1994;48.640;8.894;2023-04-01T02:49:32;94836.00;;;7.90;97.59
3960;BME280;1994;48.640;8.894;2023-04-01T02:51:58;94836.22;;;7.83;97.90
3960;BME280;1994;48.640;8.894;2023-04-01T02:54:23;94839.59;;;7.89;98.32
3960;BME280;1994;48.640;8.894;2023-04-01T02:56:49;94846.88;;;7.97;97.45
3960;BME280;1994;48.640;8.894;2023-04-01T02:59:15;94848.34;;;7.88;97.06
3960;BME280;1994;48.640;8.894;2023-04-01T03:01:41;94849.91;;;7.89;96.20
3960;BME280;1994;48.640;8.894;2023-04-01T03:04:06;94856.13;;;7.93;96.00
3960;BME280;1994;48.640;8.894;2023-04-01T03:06:32;94857.03;;;7.77;97.01
3960;BME280;1994;48.640;8.894;2023-04-01T03:08:58;94855.78;;;7.79;95.04
3960;BME280;1994;48.640;8.894;2023-04-01T03:11:24;94855.56;;;7.86;94.24
3960;BME280;1994;48.640;8.894;2023-04-01T03:13:51;94857.69;;;7.94;93.80
3960;BME280;1994;48.640;8.894;2023-04-01T03:16:17;94847.84;;;7.86;93.35
3960;BME280;1994;48.640;8.894;2023-04-01T03:18:42;94858.75;;;7.98;93.40
3960;BME280;1994;48.640;8.894;2023-04-01T03:21:22;94848.41;;;7.93;94.64
3960;BME280;1994;48.640;8.894;2023-04-01T03:23:48;94850.91;;;7.83;94.95
3960;BME280;1994;48.640;8.894;2023-04-01T03:26:15;94850.97;;;7.93;95.14
3960;BME280;1994;48.640;8.894;2023-04-01T03:28:42;94843.00;;;7.94;94.70
3960;BME280;1994;48.640;8.894;2023-04-01T03:31:08;94850.19;;;7.87;93.49
3960;BME280;1994;48.640;8.894;2023-04-01T03:33:34;94847.28;;;7.84;94.32
3960;BME280;1994;48.640;8.894;2023-04-01T03:36:00;94848.34;;;7.88;93.89
3960;BME280;1994;48.640;8.894;2023-04-01T03:38:26;94848.91;;;7.95;93.50
3960;BME280;1994;48.640;8.894;2023-04-01T03:40:52;94839.38;;;7.95;94.01
3960;BME280;1994;48.640;8.894;2023-04-01T03:43:17;94846.31;;;7.90;94.07
3960;BME280;1994;48.640;8.894;2023-04-01T03:45:46;94845.53;;;7.89;94.74
3960;BME280;1994;48.640;8.894;2023-04-01T03:48:12;94844.19;;;7.82;94.48
3960;BME280;1994;48.640;8.894;2023-04-01T03:50:37;94844.19;;;7.82;95.27
3960;BME280;1994;48.640;8.894;2023-04-01T03:53:03;94849.25;;;7.72;96.53
3960;BME280;1994;48.640;8.894;2023-04-01T03:55:29;94836.94;;;7.74;96.40
3960;BME280;1994;48.640;8.894;2023-04-01T03:57:55;94832.25;;;7.71;96.89
3960;BME280;1994;48.640;8.894;2023-04-01T04:00:21;94829.16;;;7.69;96.60
3960;BME280;1994;48.640;8.894;2023-04-01T04:02:47;94826.03;;;7.67;96.71
3960;BME280;1994;48.640;8.894;2023-04-01T04:05:13;94839.13;;;7.60;97.12
3960;BME280;1994;48.640;8.894;2023-04-01T04:07:39;94828.56;;;7.62;96.65
3960;BME280;1994;48.640;8.894;2023-04-01T04:10:06;94826.53;;;7.64;96.48
3960;BME280;1994;48.640;8.894;2023-04-01T04:12:32;94829.88;;;7.33;97.57
3960;BME280;1994;48.640;8.894;2023-04-01T04:14:58;94831.03;;;7.47;97.53
3960;BME280;1994;48.640;8.894;2023-04-01T04:17:24;94826.28;;;7.34;97.99
3960;BME280;1994;48.640;8.894;2023-04-01T04:19:49;94831.28;;;7.45;97.58
3960;BME280;1994;48.640;8.894;2023-04-01T04:22:15;94832.03;;;7.41;97.98
3960;BME280;1994;48.640;8.894;2023-04-01T04:24:41;94832.78;;;7.41;98.31
3960;BME280;1994;48.640;8.894;2023-04-01T04:27:07;94832.69;;;7.31;99.18
3960;BME280;1994;48.640;8.894;2023-04-01T04:29:33;94833.88;;;7.19;100.00
3960;BME280;1994;48.640;8.894;2023-04-01T04:31:59;94833.31;;;7.17;100.00
3960;BME280;1994;48.640;8.894;2023-04-01T04:34:25;94833.28;;;7.12;100.00
3960;BME280;1994;48.640;8.894;2023-04-01T04:36:50;94825.59;;;7.17;100.00
3960;BME280;1994;48.640;8.894;2023-04-01T04:39:16;94830.28;;;7.20;100.00
3960;BME280;1994;48.640;8.894;2023-04-01T04:41:42;94830.56;;;7.23;100.00
3960;BME280;1994;48.640;8.894;2023-04-01T04:44:08;94833.38;;;7.22;100.00
3960;BME280;1994;48.640;8.894;2023-04-01T04:46:34;94839.09;;;7.29;100.00
3960;BME280;1994;48.640;8.894;2023-04-01T04:49:01;94839.09;;;7.29;100.00
3960;BME280;1994;48.640;8.894;2023-04-01T04:51:27;94839.56;;;7.21;100.00
3960;BME280;1994;48.640;8.894;2023-04-01T04:53:53;94839.09;;;7.29;100.00
3960;BME280;1994;48.640;8.894;2023-04-01T04:56:21;94833.94;;;7.29;100.00
3960;BME280;1994;48.640;8.894;2023-04-01T04:58:48;94825.00;;;7.36;100.00
3960;BME280;1994;48.640;8.894;2023-04-01T05:01:15;94829.41;;;7.36;100.00
3960;BME280;1994;48.640;8.894;2023-04-01T05:03:42;94825.09;;;7.46;100.00
3960;BME280;1994;48.640;8.894;2023-04-01T05:06:11;94822.84;;;7.55;100.00
3960;BME280;1994;48.640;8.894;2023-04-01T05:08:37;94830.84;;;7.58;100.00
3960;BME280;1994;48.640;8.894;2023-04-01T05:11:08;94823.91;;;7.59;100.00
3960;BME280;1994;48.640;8.894;2023-04-01T05:13:38;94821.84;;;7.61;100.00
3960;BME280;1994;48.640;8.894;2023-04-01T05:16:12;94822.09;;;7.59;100.00
3960;BME280;1994;48.640;8.894;2023-04-01T05:18:38;94820.41;;;7.70;100.00
3960;BME280;1994;48.640;8.894;2023-04-01T05:21:07;94821.44;;;7.69;100.00
3960;BME280;1994;48.640;8.894;2023-04-01T05:23:33;94826.09;;;7.77;99.88
3960;BME280;1994;48.640;8.894;2023-04-01T05:26:05;94817.84;;;7.75;98.87
3960;BME280;1994;48.640;8.894;2023-04-01T05:28:32;94821.03;;;7.87;97.63
3960;BME280;1994;48.640;8.894;2023-04-01T05:31:04;94810.22;;;7.90;96.77
3960;BME280;1994;48.640;8.894;2023-04-01T05:33:31;94814.41;;;7.96;95.90
3960;BME280;1994;48.640;8.894;2023-04-01T05:36:09;94807.25;;;8.08;95.60
3960;BME280;1994;48.640;8.894;2023-04-01T05:38:37;94802.06;;;8.03;95.36
3960;BME280;1994;48.640;8.894;2023-04-01T05:41:03;94803.38;;;8.05;94.93
3960;BME280;1994;48.640;8.894;2023-04-01T05:43:29;94801.53;;;8.06;94.38
3960;BME280;1994;48.640;8.894;2023-04-01T05:45:56;94801.09;;;8.14;94.00
3960;BME280;1994;48.640;8.894;2023-04-01T05:48:22;94808.84;;;8.19;93.46
3960;BME280;1994;48.640;8.894;2023-04-01T05:50:48;94797.47;;;8.15;93.28
3960;BME280;1994;48.640;8.894;2023-04-01T05:53:14;94803.59;;;8.04;93.33
3960;BME280;1994;48.640;8.894;2023-04-01T05:55:40;94803.16;;;8.12;93.38
3960;BME280;1994;48.640;8.894;2023-04-01T05:58:05;94801.72;;;8.31;93.13
3960;BME280;1994;48.640;8.894;2023-04-01T06:00:31;94796.78;;;8.24;93.63
3960;BME280;1994;48.640;8.894;2023-04-01T06:03:00;94802.16;;;8.18;93.78
3960;BME280;1994;48.640;8.894;2023-04-01T06:05:38;94787.09;;;8.05;94.58
3960;BME280;1994;48.640;8.894;2023-04-01T06:08:16;94794.38;;;8.13;93.47
3960;BME280;1994;48.640;8.894;2023-04-01T06:11:14;94786.63;;;8.08;93.60
3960;BME280;1994;48.640;8.894;2023-04-01T06:16:55;94785.16;;;8.22;92.59
3960;BME280;1994;48.640;8.894;2023-04-01T06:19:50;94794.97;;;8.20;92.24
3960;BME280;1994;48.640;8.894;2023-04-01T06:26:06;94801.56;;;8.11;94.09
3960;BME280;1994;48.640;8.894;2023-04-01T06:29:11;94798.00;;;8.12;94.36
3960;BME280;1994;48.640;8.894;2023-04-01T06:32:06;94800.06;;;8.15;94.77
3960;BME280;1994;48.640;8.894;2023-04-01T06:34:58;94800.91;;;8.20;95.74
3960;BME280;1994;48.640;8.894;2023-04-01T06:38:08;94785.63;;;8.14;96.05
3960;BME280;1994;48.640;8.894;2023-04-01T06:41:06;94785.09;;;8.17;96.21
3960;BME280;1994;48.640;8.894;2023-04-01T06:46:47;94794.88;;;8.10;97.11
3960;BME280;1994;48.640;8.894;2023-04-01T06:54:44;94795.38;;;8.07;98.31
3960;BME280;1994;48.640;8.894;2023-04-01T06:57:48;94799.13;;;8.26;97.62
3960;BME280;1994;48.640;8.894;2023-04-01T07:00:37;94797.56;;;8.25;97.54
3960;BME280;1994;48.640;8.894;2023-04-01T07:06:35;94808.16;;;8.28;96.67
3960;BME280;1994;48.640;8.894;2023-04-01T07:09:12;94806.63;;;8.32;98.10
3960;BME280;1994;48.640;8.894;2023-04-01T07:11:40;94802.25;;;8.28;97.06
3960;BME280;1994;48.640;8.894;2023-04-01T07:14:30;94801.22;;;8.34;97.44
3960;BME280;1994;48.640;8.894;2023-04-01T07:17:27;94813.34;;;8.33;98.40
3960;BME280;1994;48.640;8.894;2023-04-01T07:20:02;94809.44;;;8.26;97.53
3960;BME280;1994;48.640;8.894;2023-04-01T07:22:48;94804.38;;;8.46;98.04
3960;BME280;1994;48.640;8.894;2023-04-01T07:25:21;94812.56;;;8.28;98.83
3960;BME280;1994;48.640;8.894;2023-04-01T07:28:00;94803.25;;;8.27;98.81
3960;BME280;1994;48.640;8.894;2023-04-01T07:30:27;94810.97;;;8.27;98.34
3960;BME280;1994;48.640;8.894;2023-04-01T07:33:28;94808.97;;;8.34;99.06
3960;BME280;1994;48.640;8.894;2023-04-01T07:50:27;94814.97;;;8.49;99.10
3960;BME280;1994;48.640;8.894;2023-04-01T08:02:25;94830.22;;;8.56;98.57
3960;BME280;1994;48.640;8.894;2023-04-01T08:07:56;94829.13;;;8.42;99.06
3960;BME280;1994;48.640;8.894;2023-04-01T08:21:49;94848.00;;;8.47;99.21
3960;BME280;1994;48.640;8.894;2023-04-01T08:24:43;94844.81;;;8.35;100.00
3960;BME280;1994;48.640;8.894;2023-04-01T08:27:26;94846.88;;;8.33;99.59
3960;BME280;1994;48.640;8.894;2023-04-01T08:30:30;94850.81;;;8.46;100.00
3960;BME280;1994;48.640;8.894;2023-04-01T08:36:10;94853.38;;;8.41;99.99
3960;BME280;1994;48.640;8.894;2023-04-01T08:38:58;94858.56;;;8.46;99.59
3960;BME280;1994;48.640;8.894;2023-04-01T08:47:32;94856.97;;;8.35;100.00
3960;BME280;1994;48.640;8.894;2023-04-01T08:53:21;94854.44;;;8.45;100.00
3960;BME280;1994;48.640;8.894;2023-04-01T08:56:20;94845.69;;;8.51;100.00
3960;BME280;1994;48.640;8.894;2023-04-01T09:14:06;94857.09;;;8.65;99.04
3960;BME280;1994;48.640;8.894;2023-04-01T09:20:02;94858.66;;;8.71;100.00
3960;BME280;1994;48.640;8.894;2023-04-01T09:43:49;94873.81;;;9.14;97.28
3960;BME280;1994;48.640;8.894;2023-04-01T10:17:24;94890.56;;;9.01;95.37
3960;BME280;1994;48.640;8.894;2023-04-01T10:22:52;94899.09;;;9.07;93.91
3960;BME280;1994;48.640;8.894;2023-04-01T10:56:09;94894.03;;;9.47;91.68
3960;BME280;1994;48.640;8.894;2023-04-01T11:15:01;94904.94;;;9.74;90.97
3960;BME280;1994;48.640;8.894;2023-04-01T11:23:50;94907.25;;;9.60;90.31
3960;BME280;1994;48.640;8.894;2023-04-01T11:29:57;94912.44;;;9.75;90.99
3960;BME280;1994;48.640;8.894;2023-04-01T11:41:37;94921.47;;;9.58;90.94
3960;BME280;1994;48.640;8.894;2023-04-01T11:50:10;94935.47;;;9.87;88.78
3960;BME280;1994;48.640;8.894;2023-04-01T11:53:34;94912.22;;;9.92;90.30
3960;BME280;1994;48.640;8.894;2023-04-01T12:06:22;94936.03;;;10.44;89.02
3960;BME280;1994;48.640;8.894;2023-04-01T12:12:59;94926.22;;;10.31;85.42
3960;BME280;1994;48.640;8.894;2023-04-01T12:15:30;94926.72;;;10.38;86.59
3960;BME280;1994;48.640;8.894;2023-04-01T12:18:25;94930.88;;;10.24;87.66
3960;BME280;1994;48.640;8.894;2023-04-01T12:21:13;94935.50;;;10.07;86.41
3960;BME280;1994;48.640;8.894;2023-04-01T12:26:51;94933.91;;;9.96;87.34
3960;BME280;1994;48.640;8.894;2023-04-01T12:38:15;94942.25;;;10.18;83.94
3960;BME280;1994;48.640;8.894;2023-04-01T12:41:14;94956.75;;;10.14;82.58
3960;BME280;1994;48.640;8.894;2023-04-01T12:55:44;94959.31;;;10.59;83.48
3960;BME280;1994;48.640;8.894;2023-04-01T13:16:03;94956.22;;;10.17;85.44
3960;BME280;1994;48.640;8.894;2023-04-01T13:18:51;94962.19;;;10.27;84.39
3960;BME280;1994;48.640;8.894;2023-04-01T13:21:53;94964.50;;;10.39;84.19
3960;BME280;1994;48.640;8.894;2023-04-01T13:24:38;94973.81;;;10.65;85.64
3960;BME280;1994;48.640;8.894;2023-04-01T13:30:27;94969.66;;;10.59;83.25
3960;BME280;1994;48.640;8.894;2023-04-01T13:33:04;94959.84;;;10.26;82.70
3960;BME280;1994;48.640;8.894;2023-04-01T13:36:22;94970.72;;;10.23;84.36
3960;BME280;1994;48.640;8.894;2023-04-01T13:44:48;94965.00;;;10.06;85.44
3960;BME280;1994;48.640;8.894;2023-04-01T13:53:23;94962.44;;;10.31;86.41
3960;BME280;1994;48.640;8.894;2023-04-01T14:13:39;94982.06;;;10.87;82.72
3960;BME280;1994;48.640;8.894;2023-04-01T14:19:29;94981.81;;;10.83;82.50
3960;BME280;1994;48.640;8.894;2023-04-01T14:25:38;94978.41;;;10.88;84.95
3960;BME280;1994;48.640;8.894;2023-04-01T14:31:52;94994.53;;;10.45;85.21
3960;BME280;1994;48.640;8.894;2023-04-01T14:38:06;94985.75;;;10.46;83.41
3960;BME280;1994;48.640;8.894;2023-04-01T14:50:45;94981.56;;;10.10;83.03
3960;BME280;1994;48.640;8.894;2023-04-01T14:55:54;94989.59;;;10.23;82.72
3960;BME280;1994;48.640;8.894;2023-04-01T14:58:46;94994.53;;;10.55;82.19
3960;BME280;1994;48.640;8.894;2023-04-01T15:19:22;95001.72;;;11.03;79.69
3960;BME280;1994;48.640;8.894;2023-04-01T15:22:01;95000.88;;;11.22;79.33
3960;BME280;1994;48.640;8.894;2023-04-01T15:30:52;95017.22;;;11.23;81.04
3960;BME280;1994;48.640;8.894;2023-04-01T15:35:00;95023.97;;;11.24;81.61
3960;BME280;1994;48.640;8.894;2023-04-01T15:48:14;95040.56;;;11.18;84.26
3960;BME280;1994;48.640;8.894;2023-04-01T15:51:16;95042.13;;;10.99;83.66
3960;BME280;1994;48.640;8.894;2023-04-01T16:18:59;95027.63;;;10.23;86.54
3960;BME280;1994;48.640;8.894;2023-04-01T16:21:52;95033.34;;;10.40;87.00
3960;BME280;1994;48.640;8.894;2023-04-01T16:30:22;95031.28;;;10.32;85.47
3960;BME280;1994;48.640;8.894;2023-04-01T16:36:10;95039.56;;;10.19;84.16
3960;BME280;1994;48.640;8.894;2023-04-01T16:38:57;95036.44;;;10.22;84.92
3960;BME280;1994;48.640;8.894;2023-04-01T16:41:34;95051.44;;;10.15;84.23
3960;BME280;1994;48.640;8.894;2023-04-01T16:44:23;95045.75;;;10.18;84.84
3960;BME280;1994;48.640;8.894;2023-04-01T16:47:07;95045.25;;;10.31;85.42
3960;BME280;1994;48.640;8.894;2023-04-01T16:49:51;95048.09;;;10.19;85.63
3960;BME280;1994;48.640;8.894;2023-04-01T16:52:53;95040.06;;;10.21;86.91
3960;BME280;1994;48.640;8.894;2023-04-01T16:55:49;95048.59;;;10.16;86.08
3960;BME280;1994;48.640;8.894;2023-04-01T16:58:26;95043.94;;;10.13;86.07
3960;BME280;1994;48.640;8.894;2023-04-01T17:01:16;95046.72;;;10.02;85.38
3960;BME280;1994;48.640;8.894;2023-04-01T17:03:47;95038.50;;;10.10;86.37
3960;BME280;1994;48.640;8.894;2023-04-01T17:14:16;95042.88;;;10.09;87.27
3960;BME280;1994;48.640;8.894;2023-04-01T17:23:03;95066.88;;;9.95;87.11
3960;BME280;1994;48.640;8.894;2023-04-01T17:29:15;95064.28;;;9.90;88.01
3960;BME280;1994;48.640;8.894;2023-04-01T17:35:26;95077.22;;;9.95;88.36
3960;BME280;1994;48.640;8.894;2023-04-01T17:43:57;95091.19;;;9.94;89.13
3960;BME280;1994;48.640;8.894;2023-04-01T17:49:37;95100.53;;;10.00;89.76
3960;BME280;1994;48.640;8.894;2023-04-01T17:52:44;95102.03;;;9.91;91.30
3960;BME280;1994;48.640;8.894;2023-04-01T17:55:38;95115.28;;;9.99;92.11
3960;BME280;1994;48.640;8.894;2023-04-01T17:58:51;95113.19;;;9.91;93.22
3960;BME280;1994;48.640;8.894;2023-04-01T18:10:43;95156.94;;;9.98;90.83
3960;BME280;1994;48.640;8.894;2023-04-01T18:22:43;95161.56;;;9.49;89.78
3960;BME280;1994;48.640;8.894;2023-04-01T18:25:29;95158.91;;;9.34;89.69
3960;BME280;1994;48.640;8.894;2023-04-01T18:31:18;95159.50;;;9.15;90.40
3960;BME280;1994;48.640;8.894;2023-04-01T18:34:08;95164.19;;;9.18;91.38
3960;BME280;1994;48.640;8.894;2023-04-01T18:36:59;95167.53;;;9.13;90.82
3960;BME280;1994;48.640;8.894;2023-04-01T18:39:48;95171.38;;;9.11;91.32
3960;BME280;1994;48.640;8.894;2023-04-01T18:43:08;95173.88;;;9.01;91.32
3960;BME280;1994;48.640;8.894;2023-04-01T18:45:54;95177.50;;;9.00;91.83
3960;BME280;1994;48.640;8.894;2023-04-01T18:51:21;95173.59;;;8.71;93.04
3960;BME280;1994;48.640;8.894;2023-04-01T18:54:02;95170.59;;;8.79;92.96
3960;BME280;1994;48.640;8.894;2023-04-01T18:56:35;95171.56;;;8.73;93.01
3960;BME280;1994;48.640;8.894;2023-04-01T18:59:12;95172.94;;;8.80;92.89
3960;BME280;1994;48.640;8.894;2023-04-01T19:04:43;95175.56;;;8.59;93.44
3960;BME280;1994;48.640;8.894;2023-04-01T19:10:16;95176.19;;;8.71;92.81
3960;BME280;1994;48.640;8.894;2023-04-01T19:24:42;95183.84;;;8.61;93.27
3960;BME280;1994;48.640;8.894;2023-04-01T19:34:12;95180.88;;;8.04;94.38
3960;BME280;1994;48.640;8.894;2023-04-01T19:36:40;95184.09;;;7.95;95.27
3960;BME280;1994;48.640;8.894;2023-04-01T19:46:13;95175.75;;;7.66;97.30
3960;BME280;1994;48.640;8.894;2023-04-01T20:03:37;95199.78;;;7.72;98.57
3960;BME280;1994;48.640;8.894;2023-04-01T20:18:02;95214.63;;;8.03;98.10
3960;BME280;1994;48.640;8.894;2023-04-01T20:20:32;95220.44;;;8.15;97.98
3960;BME280;1994;48.640;8.894;2023-04-01T20:26:12;95227.63;;;8.29;97.96
3960;BME280;1994;48.640;8.894;2023-04-01T20:29:35;95237.72;;;8.31;97.43
3960;BME280;1994;48.640;8.894;2023-04-01T20:31:42;95237.47;;;8.16;98.52
3960;BME280;1994;48.640;8.894;2023-04-01T20:38:04;95241.44;;;8.02;99.53
3960;BME280;1994;48.640;8.894;2023-04-01T20:40:33;95252.78;;;8.01;99.90
3960;BME280;1994;48.640;8.894;2023-04-01T20:51:32;95262.88;;;7.86;100.00
3960;BME280;1994;48.640;8.894;2023-04-01T20:57:13;95275.22;;;7.84;100.00
3960;BME280;1994;48.640;8.894;2023-04-01T21:06:34;95266.88;;;8.15;99.45
3960;BME280;1994;48.640;8.894;2023-04-01T21:09:31;95270.72;;;8.29;98.74
3960;BME280;1994;48.640;8.894;2023-04-01T21:15:22;95271.25;;;8.31;94.29
3960;BME280;1994;48.640;8.894;2023-04-01T21:23:49;95268.66;;;8.31;93.76
3960;BME280;1994;48.640;8.894;2023-04-01T21:26:43;95272.09;;;8.36;93.33
3960;BME280;1994;48.640;8.894;2023-04-01T21:29:45;95276.34;;;8.26;93.33
3960;BME280;1994;48.640;8.894;2023-04-01T21:35:29;95277.91;;;8.27;92.26
3960;BME280;1994;48.640;8.894;2023-04-01T22:01:22;95302.47;;;8.13;93.37
3960;BME280;1994;48.640;8.894;2023-04-01T22:07:34;95304.41;;;8.06;93.71
3960;BME280;1994;48.640;8.894;2023-04-01T22:18:33;95309.00;;;7.82;94.61
3960;BME280;1994;48.640;8.894;2023-04-01T22:21:33;95314.75;;;7.73;94.90
3960;BME280;1994;48.640;8.894;2023-04-01T22:26:50;95318.53;;;7.65;95.31
3960;BME280;1994;48.640;8.894;2023-04-01T22:32:31;95331.16;;;7.50;95.71
3960;BME280;1994;48.640;8.894;2023-04-01T22:35:07;95317.88;;;7.42;95.95
3960;BME280;1994;48.640;8.894;2023-04-01T22:41:25;95328.63;;;7.39;96.62
3960;BME280;1994;48.640;8.894;2023-04-01T22:43:56;95320.19;;;7.27;97.55
3960;BME280;1994;48.640;8.894;2023-04-01T22:49:47;95330.31;;;7.17;98.23
3960;BME280;1994;48.640;8.894;2023-04-01T22:54:58;95331.34;;;7.16;98.23
3960;BME280;1994;48.640;8.894;2023-04-01T22:57:46;95326.72;;;7.18;98.37
3960;BME280;1994;48.640;8.894;2023-04-01T23:00:26;95338.13;;;7.22;98.57
3960;BME280;1994;48.640;8.894;2023-04-01T23:05:32;95336.53;;;7.04;98.88
3960;BME280;1994;48.640;8.894;2023-04-01T23:10:56;95335.94;;;7.14;98.36
3960;BME280;1994;48.640;8.894;2023-04-01T23:16:37;95347.31;;;7.18;98.48
3960;BME280;1994;48.640;8.894;2023-04-01T23:19:21;95344.75;;;7.18;98.19
3960;BME280;1994;48.640;8.894;2023-04-01T23:22:02;95351.41;;;7.14;98.11
3960;BME280;1994;48.640;8.894;2023-04-01T23:27:15;95351.66;;;7.01;98.78
3960;BME280;1994;48.640;8.894;2023-04-01T23:29:44;95355.25;;;7.00;99.07
3960;BME280;1994;48.640;8.894;2023-04-01T23:32:17;95356.97;;;6.94;99.48
3960;BME280;1994;48.640;8.894;2023-04-01T23:34:57;95358.84;;;6.99;99.63
3960;BME280;1994;48.640;8.894;2023-04-01T23:37:24;95367.56;;;6.98;99.41
3960;BME280;1994;48.640;8.894;2023-04-01T23:39:57;95368.03;;;6.95;99.38
3960;BME280;1994;48.640;8.894;2023-04-01T23:42:32;95363.00;;;6.88;99.87
3960;BME280;1994;48.640;8.894;2023-04-01T23:45:16;95365.34;;;6.90;99.52
3960;BME280;1994;48.640;8.894;2023-04-01T23:47:45;95368.13;;;6.88;100.00
3960;BME280;1994;48.640;8.894;2023-04-01T23:50:21;95370.81;;;6.93;99.62
3960;BME280;1994;48.640;8.894;2023-04-01T23:53:16;95374.53;;;6.86;99.89
3960;BME280;1994;48.640;8.894;2023-04-01T23:55:46;95375.91;;;6.77;99.95
3960;BME280;1994;48.640;8.894;2023-04-01T23:58:27;95373.56;;;6.75;100.00
